createdAt,value
2019-02-02T00:02:46.259Z,65.00
2019-02-02T00:07:50.155Z,65.70
2019-02-02T00:12:54.195Z,65.30
2019-02-02T00:17:58.207Z,65.10
2019-02-02T00:23:02.248Z,65.00
2019-02-02T00:28:06.657Z,65.40
2019-02-02T00:33:10.675Z,65.90
2019-02-02T00:38:14.614Z,64.90
2019-02-02T00:43:18.502Z,65.30
2019-02-02T00:48:22.526Z,65.10
2019-02-02T00:53:26.559Z,65.10
2019-02-02T00:58:30.583Z,65.50
2019-02-02T01:03:34.600Z,65.90
2019-02-02T01:08:38.635Z,65.70
2019-02-02T01:13:42.655Z,65.70
2019-02-02T01:18:46.590Z,65.70
2019-02-02T01:23:51.052Z,65.30
2019-02-02T01:28:55.659Z,65.60
2019-02-02T01:33:59.671Z,65.70
2019-02-02T01:39:05.254Z,65.20
2019-02-02T01:44:09.285Z,65.30
2019-02-02T01:49:13.303Z,65.60
2019-02-02T01:54:17.338Z,65.60
2019-02-02T01:59:21.362Z,65.70
2019-02-02T02:04:25.264Z,65.90
2019-02-02T02:09:29.297Z,65.50
2019-02-02T02:14:33.312Z,66.00
2019-02-02T02:19:37.328Z,65.80
2019-02-02T02:24:41.296Z,66.00
2019-02-02T02:29:45.263Z,66.10
2019-02-02T02:34:49.326Z,65.90
2019-02-02T02:39:53.293Z,66.20
2019-02-02T02:44:57.254Z,65.90
2019-02-02T02:50:01.218Z,67.00
2019-02-02T02:55:07.415Z,66.10
2019-02-02T03:00:20.784Z,66.70
2019-02-02T03:05:24.855Z,66.10
2019-02-02T03:10:28.901Z,66.10
2019-02-02T03:15:32.789Z,66.00
2019-02-02T03:20:36.760Z,66.60
2019-02-02T03:25:40.791Z,66.60
2019-02-02T03:30:44.837Z,66.10
2019-02-02T03:35:48.801Z,66.90
2019-02-02T03:40:52.842Z,66.40
2019-02-02T03:45:56.871Z,66.20
2019-02-02T03:51:01.196Z,66.20
2019-02-02T03:56:05.231Z,66.00
2019-02-02T04:01:09.276Z,65.90
2019-02-02T04:06:13.338Z,67.10
2019-02-02T04:11:17.392Z,66.00
2019-02-02T04:16:21.449Z,66.20
2019-02-02T04:21:25.487Z,66.00
2019-02-02T04:26:29.532Z,66.20
2019-02-02T04:31:33.512Z,66.20
2019-02-02T04:36:37.480Z,66.30
2019-02-02T04:41:41.517Z,66.00
2019-02-02T04:46:45.484Z,66.00
2019-02-02T04:51:49.538Z,66.10
2019-02-02T04:56:53.515Z,66.00
2019-02-02T05:01:57.566Z,66.00
2019-02-02T05:07:01.632Z,66.20
2019-02-02T05:12:05.678Z,66.30
2019-02-02T05:17:10.065Z,67.20
2019-02-02T05:22:14.032Z,66.60
2019-02-02T05:27:18.362Z,66.00
2019-02-02T05:32:22.411Z,66.00
2019-02-02T05:37:26.395Z,66.00
2019-02-02T05:42:30.443Z,66.00
2019-02-02T05:47:34.409Z,65.90
2019-02-02T05:52:38.451Z,66.50
2019-02-02T05:57:42.495Z,65.90
2019-02-02T06:02:46.543Z,66.00
2019-02-02T06:07:50.533Z,66.10
2019-02-02T06:12:54.578Z,66.10
2019-02-02T06:17:58.634Z,66.10
2019-02-02T06:23:04.011Z,67.00
2019-02-02T06:28:08.051Z,66.30
2019-02-02T06:33:12.097Z,66.20
2019-02-02T06:38:16.140Z,66.60
2019-02-02T06:43:20.171Z,66.90
2019-02-02T06:48:24.135Z,66.10
2019-02-02T06:53:28.123Z,66.30
2019-02-02T06:58:32.109Z,66.20
2019-02-02T07:03:36.160Z,66.20
2019-02-02T07:08:40.345Z,66.20
2019-02-02T07:13:44.379Z,66.50
2019-02-02T07:18:48.427Z,66.30
2019-02-02T07:23:52.403Z,66.10
2019-02-02T07:28:56.463Z,66.10
2019-02-02T07:34:00.503Z,66.20
2019-02-02T07:39:07.491Z,66.10
2019-02-02T07:44:11.503Z,66.40
2019-02-02T07:49:15.548Z,67.30
2019-02-02T07:54:19.535Z,66.70
2019-02-02T07:59:23.606Z,66.50
2019-02-02T08:04:27.534Z,66.40
2019-02-02T08:09:31.451Z,67.00
2019-02-02T08:14:35.419Z,66.70
2019-02-02T08:19:39.327Z,66.40
2019-02-02T08:24:43.329Z,66.90
2019-02-02T08:29:47.276Z,66.70
2019-02-02T08:34:51.244Z,67.30
2019-02-02T08:39:55.351Z,66.80
2019-02-02T08:44:59.603Z,66.90
2019-02-02T08:50:04.459Z,67.70
2019-02-02T08:55:08.579Z,67.20
2019-02-02T09:00:15.428Z,68.10
2019-02-02T09:05:20.332Z,68.00
2019-02-02T09:10:26.138Z,67.60
2019-02-02T09:15:30.345Z,68.50
2019-02-02T09:20:34.423Z,68.30
2019-02-02T09:25:38.491Z,67.80
2019-02-02T09:30:42.799Z,67.70
2019-02-02T09:35:46.755Z,67.90
2019-02-02T09:40:50.642Z,68.00
2019-02-02T09:45:54.685Z,68.00
2019-02-02T09:50:58.667Z,68.20
2019-02-02T09:56:02.729Z,68.00
2019-02-02T10:01:06.748Z,68.50
2019-02-02T10:06:10.786Z,67.40
2019-02-02T10:11:14.768Z,67.70
2019-02-02T10:16:18.879Z,68.50
2019-02-02T10:21:22.827Z,68.00
2019-02-02T10:26:26.890Z,67.90
2019-02-02T10:31:39.365Z,68.60
2019-02-02T10:36:36.683Z,68.40
2019-02-02T10:41:40.667Z,68.00
2019-02-02T10:46:44.656Z,68.40
2019-02-02T10:51:49.563Z,68.20
2019-02-02T10:56:53.631Z,68.20
2019-02-02T11:01:57.934Z,73.30
2019-02-02T11:07:03.081Z,68.70
2019-02-02T11:12:07.298Z,69.40
2019-02-02T11:17:11.733Z,69.70
2019-02-02T11:22:15.920Z,69.00
2019-02-02T11:27:20.027Z,69.90
2019-02-02T11:32:24.025Z,69.80
2019-02-02T11:37:28.131Z,69.40
2019-02-02T11:42:32.405Z,68.90
2019-02-02T11:47:36.410Z,68.90
2019-02-02T11:52:40.463Z,69.30
2019-02-02T11:57:44.547Z,69.30
2019-02-02T12:02:49.747Z,69.30
2019-02-02T12:07:54.007Z,69.60
2019-02-02T12:12:58.088Z,69.10
2019-02-02T12:18:02.191Z,78.80
2019-02-02T12:23:06.271Z,69.10
2019-02-02T12:28:10.348Z,70.80
2019-02-02T12:33:14.414Z,66.90
2019-02-02T12:38:18.499Z,68.10
2019-02-02T12:43:22.605Z,68.30
2019-02-02T12:48:26.639Z,68.90
2019-02-02T12:53:30.551Z,69.00
2019-02-02T12:58:34.712Z,68.50
2019-02-02T13:03:38.775Z,68.80
2019-02-02T13:08:42.877Z,71.90
2019-02-02T13:13:46.867Z,68.40
2019-02-02T13:18:50.956Z,71.30
2019-02-02T13:23:54.976Z,68.20
2019-02-02T13:28:59.044Z,67.90
2019-02-02T13:34:02.963Z,68.50
2019-02-02T13:39:10.491Z,68.50
2019-02-02T13:44:14.519Z,77.80
2019-02-02T13:49:18.456Z,71.10
2019-02-02T13:54:22.504Z,72.10
2019-02-02T13:59:26.571Z,66.80
2019-02-02T14:04:30.567Z,80.90
2019-02-02T14:09:34.644Z,77.10
2019-02-02T14:14:38.746Z,69.70
2019-02-02T14:19:42.687Z,67.90
2019-02-02T14:24:46.675Z,71.40
2019-02-02T14:29:50.672Z,66.00
2019-02-02T14:34:54.585Z,67.80
2019-02-02T14:39:58.795Z,68.00
2019-02-02T14:45:02.817Z,74.10
2019-02-02T14:50:09.543Z,80.00
2019-02-02T14:55:15.957Z,70.90
2019-02-02T15:00:22.788Z,68.90
2019-02-02T15:05:27.584Z,67.90
2019-02-02T15:10:31.658Z,68.40
2019-02-02T15:15:35.813Z,67.70
2019-02-02T15:20:40.048Z,68.00
2019-02-02T15:25:44.091Z,74.50
2019-02-02T15:30:48.114Z,70.40
2019-02-02T15:35:52.192Z,74.90
2019-02-02T15:40:59.159Z,74.70
2019-02-02T15:46:01.911Z,71.40
2019-02-02T15:51:06.123Z,71.00
2019-02-02T15:56:10.208Z,65.10
2019-02-02T16:01:14.315Z,67.60
2019-02-02T16:06:18.423Z,67.80
2019-02-02T16:11:22.357Z,68.20
2019-02-02T16:16:26.668Z,66.70
2019-02-02T16:21:30.780Z,79.50
2019-02-02T16:26:34.882Z,75.30
2019-02-02T16:31:38.867Z,72.70
2019-02-02T16:36:42.855Z,71.50
2019-02-02T16:41:46.921Z,67.80
2019-02-02T16:46:51.024Z,69.60
2019-02-02T16:51:55.013Z,70.60
2019-02-02T16:56:59.007Z,70.00
2019-02-02T17:02:03.227Z,69.20
2019-02-02T17:07:07.523Z,66.70
2019-02-02T17:12:11.523Z,68.60
2019-02-02T17:17:15.656Z,71.50
2019-02-02T17:22:19.944Z,69.40
2019-02-02T17:27:24.127Z,66.00
2019-02-02T17:32:28.202Z,68.70
2019-02-02T17:37:32.460Z,69.50
2019-02-02T17:42:37.228Z,68.50
2019-02-02T17:47:41.464Z,68.60
2019-02-02T17:52:45.700Z,69.60
2019-02-02T17:57:49.798Z,69.40
2019-02-02T18:02:54.472Z,69.80
2019-02-02T18:07:59.872Z,69.90
2019-02-02T18:13:04.660Z,70.20
2019-02-02T18:18:08.768Z,69.60
2019-02-02T18:23:12.883Z,70.60
2019-02-02T18:28:16.945Z,70.80
2019-02-02T18:33:20.951Z,70.80
2019-02-02T18:38:25.056Z,70.20
2019-02-02T18:43:28.969Z,70.30
2019-02-02T18:48:33.013Z,70.70
2019-02-02T18:53:37.227Z,69.80
2019-02-02T18:58:41.348Z,70.20
2019-02-02T19:03:45.553Z,69.40
2019-02-02T19:08:49.603Z,69.40
2019-02-02T19:13:53.695Z,69.20
2019-02-02T19:18:57.954Z,69.40
2019-02-02T19:24:02.056Z,69.50
2019-02-02T19:29:06.244Z,69.40
2019-02-02T19:34:12.744Z,69.60
2019-02-02T19:39:16.823Z,69.40
2019-02-02T19:44:20.728Z,69.60
2019-02-02T19:49:24.759Z,69.40
2019-02-02T19:54:28.819Z,69.20
2019-02-02T19:59:32.863Z,69.70
2019-02-02T20:04:36.780Z,69.40
2019-02-02T20:09:40.893Z,70.30
2019-02-02T20:14:44.884Z,69.80
2019-02-02T20:19:48.868Z,69.80
2019-02-02T20:24:52.853Z,69.60
2019-02-02T20:29:56.901Z,70.50
2019-02-02T20:35:00.951Z,70.40
2019-02-02T20:40:05.991Z,69.10
2019-02-02T20:45:12.470Z,69.40
2019-02-02T20:50:17.724Z,69.40
2019-02-02T20:55:24.302Z,69.10
2019-02-02T21:00:28.903Z,69.20
2019-02-02T21:05:32.942Z,68.80
2019-02-02T21:10:37.300Z,68.40
2019-02-02T21:15:41.411Z,69.20
2019-02-02T21:20:45.456Z,68.80
2019-02-02T21:25:49.482Z,68.40
2019-02-02T21:30:53.440Z,68.20
2019-02-02T21:36:03.963Z,67.60
2019-02-02T21:41:05.132Z,68.00
2019-02-02T21:46:09.200Z,67.60
2019-02-02T21:51:13.245Z,67.40
2019-02-02T21:56:17.226Z,68.20
2019-02-02T22:01:24.085Z,68.70
2019-02-02T22:06:27.109Z,68.10
2019-02-02T22:11:31.172Z,67.50
2019-02-02T22:16:35.256Z,68.40
2019-02-02T22:21:39.232Z,69.20
2019-02-02T22:26:43.274Z,68.60
2019-02-02T22:31:47.370Z,68.70
2019-02-02T22:36:51.356Z,69.30
2019-02-02T22:41:55.323Z,68.40
2019-02-02T22:46:59.405Z,68.00
2019-02-02T22:52:03.460Z,67.60
2019-02-02T22:57:07.529Z,67.60
2019-02-02T23:02:16.472Z,68.80
2019-02-02T23:07:51.795Z,69.70
2019-02-02T23:13:44.804Z,69.10
2019-02-02T23:18:48.867Z,68.50
2019-02-02T23:23:53.003Z,68.70
2019-02-02T23:28:57.099Z,68.60
2019-02-02T23:34:01.547Z,69.10
2019-02-02T23:39:08.504Z,69.00
2019-02-02T23:44:12.919Z,69.20
2019-02-02T23:49:16.980Z,69.10
2019-02-02T23:54:21.071Z,68.90
2019-02-02T23:59:25.137Z,69.40
